createdAt,value
2023-03-22T00:00:00.842Z,11.44
2023-03-22T00:02:27.913Z,11.36
2023-03-22T00:04:55.098Z,11.40
2023-03-22T00:07:22.128Z,11.45
2023-03-22T00:09:49.114Z,11.39
2023-03-22T00:12:16.496Z,11.41
2023-03-22T00:14:43.450Z,11.48
2023-03-22T00:17:10.578Z,11.41
2023-03-22T00:19:37.697Z,11.42
2023-03-22T00:22:06.439Z,11.35
2023-03-22T00:24:33.574Z,11.41
2023-03-22T00:27:01.225Z,11.08
2023-03-22T00:29:28.448Z,10.93
2023-03-22T00:31:56.468Z,10.80
2023-03-22T00:34:23.745Z,10.93
2023-03-22T00:36:52.200Z,10.67
2023-03-22T00:39:20.019Z,10.81
2023-03-22T00:41:47.076Z,10.85
2023-03-22T00:44:14.140Z,10.92
2023-03-22T00:46:41.161Z,10.92
2023-03-22T00:49:08.226Z,10.92
2023-03-22T00:51:35.856Z,11.04
2023-03-22T00:54:02.950Z,11.04
2023-03-22T00:56:30.113Z,10.93
2023-03-22T00:59:04.714Z,11.00
2023-03-22T01:01:32.428Z,10.97
2023-03-22T01:04:00.067Z,11.07
2023-03-22T01:06:27.147Z,11.07
2023-03-22T01:08:55.412Z,10.96
2023-03-22T01:11:22.581Z,11.03
2023-03-22T01:13:50.161Z,11.03
2023-03-22T01:16:18.011Z,11.09
2023-03-22T01:18:45.406Z,10.82
2023-03-22T01:21:13.186Z,11.12
2023-03-22T01:23:40.790Z,11.21
2023-03-22T01:26:08.029Z,11.16
2023-03-22T01:28:35.036Z,11.33
2023-03-22T01:31:03.176Z,10.71
2023-03-22T01:33:30.965Z,10.70
2023-03-22T01:35:58.495Z,10.73
2023-03-22T01:38:26.399Z,10.62
2023-03-22T01:40:57.646Z,10.60
2023-03-22T01:43:25.862Z,10.67
2023-03-22T01:45:54.257Z,10.51
2023-03-22T01:48:37.890Z,10.54
2023-03-22T01:51:09.110Z,10.55
2023-03-22T01:53:58.434Z,10.58
2023-03-22T01:56:28.787Z,10.51
2023-03-22T01:58:56.810Z,10.53
2023-03-22T02:01:33.129Z,10.53
2023-03-22T02:04:10.249Z,10.58
2023-03-22T02:06:38.507Z,10.68
2023-03-22T02:09:17.661Z,10.66
2023-03-22T02:11:52.655Z,10.66
2023-03-22T02:14:43.859Z,10.76
2023-03-22T02:17:27.879Z,10.80
2023-03-22T02:20:38.972Z,10.98
2023-03-22T02:23:21.045Z,11.03
2023-03-22T02:26:06.435Z,11.02
2023-03-22T02:28:39.369Z,10.89
2023-03-22T02:31:15.706Z,10.94
2023-03-22T02:33:59.939Z,10.88
2023-03-22T02:36:33.173Z,10.92
2023-03-22T02:39:23.435Z,10.86
2023-03-22T02:41:59.668Z,10.17
2023-03-22T02:44:35.753Z,9.98
2023-03-22T02:47:08.390Z,9.97
2023-03-22T02:49:40.582Z,9.97
2023-03-22T02:52:17.582Z,10.03
2023-03-22T02:55:02.259Z,10.01
2023-03-22T02:57:38.160Z,10.05
2023-03-22T03:00:12.649Z,10.07
2023-03-22T03:02:44.305Z,9.97
2023-03-22T03:05:13.545Z,9.90
2023-03-22T03:07:44.824Z,10.01
2023-03-22T03:10:15.617Z,10.03
2023-03-22T03:12:43.458Z,9.72
2023-03-22T03:15:17.149Z,9.86
2023-03-22T03:17:57.452Z,9.94
2023-03-22T03:20:34.663Z,9.87
2023-03-22T03:23:04.088Z,9.80
2023-03-22T03:25:47.555Z,9.93
2023-03-22T03:28:23.202Z,9.88
2023-03-22T03:31:10.342Z,9.76
2023-03-22T03:33:53.349Z,9.74
2023-03-22T03:36:22.010Z,9.68
2023-03-22T03:38:52.719Z,9.67
2023-03-22T03:41:27.407Z,9.69
2023-03-22T03:43:56.435Z,9.74
2023-03-22T03:46:23.456Z,9.69
2023-03-22T03:48:52.948Z,9.65
2023-03-22T03:51:20.036Z,9.77
2023-03-22T03:53:47.392Z,9.90
2023-03-22T03:56:14.677Z,10.01
2023-03-22T03:58:45.390Z,10.12
2023-03-22T04:01:12.478Z,10.17
2023-03-22T04:03:50.892Z,10.21
2023-03-22T04:06:40.883Z,10.23
2023-03-22T04:09:16.420Z,10.21
2023-03-22T04:11:47.472Z,10.14
2023-03-22T04:14:15.563Z,9.88
2023-03-22T04:16:42.623Z,9.93
2023-03-22T04:19:14.227Z,9.95
2023-03-22T04:21:41.445Z,9.94
2023-03-22T04:24:10.096Z,9.93
2023-03-22T04:26:41.011Z,9.90
2023-03-22T04:29:19.450Z,10.08
2023-03-22T04:31:50.669Z,10.17
2023-03-22T04:34:23.559Z,10.24
2023-03-22T04:37:14.896Z,10.28
2023-03-22T04:39:55.559Z,10.34
2023-03-22T04:42:35.737Z,10.20
2023-03-22T04:45:16.351Z,10.28
2023-03-22T04:47:48.395Z,10.22
2023-03-22T04:50:16.000Z,10.28
2023-03-22T04:52:50.357Z,10.27
2023-03-22T04:55:17.862Z,10.20
2023-03-22T04:57:46.007Z,10.19
2023-03-22T05:00:13.768Z,10.03
2023-03-22T05:02:41.660Z,10.05
2023-03-22T05:05:16.710Z,10.15
2023-03-22T05:07:45.334Z,10.22
2023-03-22T05:10:12.429Z,10.34
2023-03-22T05:12:40.712Z,10.40
2023-03-22T05:15:26.671Z,10.46
2023-03-22T05:17:55.903Z,10.50
2023-03-22T05:20:23.758Z,10.51
2023-03-22T05:23:06.653Z,10.53
2023-03-22T05:25:34.345Z,10.60
2023-03-22T05:28:02.212Z,10.59
2023-03-22T05:30:43.121Z,10.55
2023-03-22T05:33:30.388Z,10.45
2023-03-22T05:36:01.488Z,10.43
2023-03-22T05:38:32.498Z,10.42
2023-03-22T05:41:01.334Z,10.38
2023-03-22T05:43:31.205Z,10.39
2023-03-22T05:45:58.302Z,10.34
2023-03-22T05:48:39.091Z,10.31
2023-03-22T05:51:08.140Z,10.29
2023-03-22T05:53:36.054Z,10.43
2023-03-22T05:56:16.318Z,10.28
2023-03-22T05:58:46.293Z,10.40
2023-03-22T06:01:16.717Z,10.37
2023-03-22T06:03:48.514Z,10.48
2023-03-22T06:06:51.643Z,10.50
2023-03-22T06:09:36.574Z,10.55
2023-03-22T06:12:07.511Z,10.43
2023-03-22T06:14:34.837Z,10.47
2023-03-22T06:17:21.054Z,10.72
2023-03-22T06:19:50.051Z,10.91
2023-03-22T06:22:19.016Z,10.90
2023-03-22T06:24:47.971Z,10.74
2023-03-22T06:27:19.988Z,10.76
2023-03-22T06:29:51.163Z,10.76
2023-03-22T06:32:26.911Z,11.09
2023-03-22T06:34:55.665Z,11.10
2023-03-22T06:37:24.713Z,11.19
2023-03-22T06:39:52.432Z,11.39
2023-03-22T06:42:22.007Z,11.60
2023-03-22T06:44:59.549Z,11.83
2023-03-22T06:47:29.970Z,12.06
2023-03-22T06:50:16.059Z,12.30
2023-03-22T06:53:15.489Z,12.58
2023-03-22T06:55:43.734Z,12.81
2023-03-22T06:58:14.683Z,13.01
2023-03-22T07:00:42.041Z,13.12
2023-03-22T07:03:09.347Z,12.91
2023-03-22T07:05:44.201Z,12.94
2023-03-22T07:08:12.363Z,13.04
2023-03-22T07:10:50.510Z,13.17
2023-03-22T07:13:20.464Z,13.30
2023-03-22T07:15:49.023Z,13.37
2023-03-22T07:18:36.961Z,13.35
2023-03-22T07:21:04.844Z,13.22
2023-03-22T07:23:33.054Z,13.32
2023-03-22T07:26:06.489Z,13.66
2023-03-22T07:28:35.997Z,13.89
2023-03-22T07:31:12.715Z,13.97
2023-03-22T07:33:59.990Z,14.17
2023-03-22T07:36:29.788Z,14.41
2023-03-22T07:38:57.119Z,14.51
2023-03-22T07:41:34.632Z,14.52
2023-03-22T07:44:31.120Z,14.69
2023-03-22T07:47:27.171Z,14.50
2023-03-22T07:50:15.162Z,14.23
2023-03-22T07:52:45.754Z,14.02
2023-03-22T07:55:14.764Z,13.93
2023-03-22T07:57:42.352Z,13.97
2023-03-22T08:00:10.801Z,13.85
2023-03-22T08:02:47.729Z,13.87
2023-03-22T08:05:30.643Z,14.00
2023-03-22T08:08:01.545Z,14.01
2023-03-22T08:10:28.548Z,14.06
2023-03-22T08:12:55.672Z,14.15
2023-03-22T08:15:25.842Z,14.26
2023-03-22T08:17:53.874Z,14.32
2023-03-22T08:20:30.025Z,14.32
2023-03-22T08:23:01.529Z,14.42
2023-03-22T08:25:52.224Z,14.59
2023-03-22T08:28:19.695Z,14.63
2023-03-22T08:30:48.672Z,14.88
2023-03-22T08:33:16.405Z,14.99
2023-03-22T08:35:45.501Z,14.99
2023-03-22T08:38:12.798Z,15.34
2023-03-22T08:40:47.212Z,15.45
2023-03-22T08:43:17.545Z,15.76
2023-03-22T08:45:45.072Z,15.99
2023-03-22T08:48:16.246Z,16.11
2023-03-22T08:51:02.598Z,15.78
2023-03-22T08:53:40.615Z,15.94
2023-03-22T08:56:27.547Z,15.98
2023-03-22T08:59:10.088Z,15.82
2023-03-22T09:02:06.669Z,16.29
2023-03-22T09:04:33.978Z,16.53
2023-03-22T09:07:02.316Z,16.79
2023-03-22T09:09:29.420Z,16.91
2023-03-22T09:11:58.369Z,17.08
2023-03-22T09:14:25.877Z,17.27
2023-03-22T09:16:54.034Z,17.38
2023-03-22T09:19:21.389Z,17.44
2023-03-22T09:21:48.637Z,17.33
2023-03-22T09:24:20.972Z,17.47
2023-03-22T09:26:53.048Z,17.47
2023-03-22T09:29:20.758Z,17.53
2023-03-22T09:31:49.150Z,17.59
2023-03-22T09:34:23.514Z,17.54
2023-03-22T09:36:52.977Z,17.46
2023-03-22T09:39:24.021Z,17.11
2023-03-22T09:42:02.670Z,16.94
2023-03-22T09:44:29.691Z,16.95
2023-03-22T09:47:00.221Z,17.03
2023-03-22T09:49:50.458Z,16.91
2023-03-22T09:52:19.980Z,16.97
2023-03-22T09:54:47.569Z,17.02
2023-03-22T09:57:24.583Z,17.09
2023-03-22T09:59:57.288Z,17.09
2023-03-22T10:02:57.402Z,17.05
2023-03-22T10:05:33.972Z,16.86
2023-03-22T10:08:26.524Z,16.76
2023-03-22T10:10:53.828Z,16.96
2023-03-22T10:13:32.650Z,17.02
2023-03-22T10:16:06.788Z,16.85
2023-03-22T10:18:38.087Z,17.00
2023-03-22T10:21:08.242Z,17.06
2023-03-22T10:24:23.140Z,16.88
2023-03-22T10:26:51.616Z,16.92
2023-03-22T10:29:40.109Z,16.77
2023-03-22T10:32:19.418Z,16.82
2023-03-22T10:34:47.580Z,17.02
2023-03-22T10:37:22.407Z,17.09
2023-03-22T10:39:53.976Z,17.00
2023-03-22T10:42:27.171Z,17.11
2023-03-22T10:44:58.918Z,17.19
2023-03-22T10:47:40.901Z,17.27
2023-03-22T10:50:19.763Z,17.08
2023-03-22T10:52:57.542Z,17.27
2023-03-22T10:55:25.668Z,17.22
2023-03-22T10:58:12.263Z,17.02
2023-03-22T11:00:44.780Z,17.37
2023-03-22T11:03:37.731Z,17.59
2023-03-22T11:06:07.690Z,17.60
2023-03-22T11:08:51.618Z,17.65
2023-03-22T11:11:53.654Z,17.81
2023-03-22T11:14:35.817Z,17.68
2023-03-22T11:17:20.357Z,17.77
2023-03-22T11:19:54.223Z,17.98
2023-03-22T11:22:27.214Z,17.94
2023-03-22T11:24:56.605Z,17.76
2023-03-22T11:27:30.118Z,18.04
2023-03-22T11:30:20.502Z,18.18
2023-03-22T11:32:48.518Z,18.10
2023-03-22T11:35:22.596Z,18.24
2023-03-22T11:37:54.498Z,18.57
2023-03-22T11:40:28.783Z,18.63
2023-03-22T11:43:03.481Z,18.77
2023-03-22T11:45:36.266Z,18.70
2023-03-22T11:48:07.689Z,18.63
2023-03-22T11:50:40.249Z,18.58
2023-03-22T11:53:14.935Z,18.72
2023-03-22T11:55:43.182Z,18.70
2023-03-22T11:58:28.989Z,18.57
2023-03-22T12:01:01.197Z,18.82
2023-03-22T12:03:37.544Z,18.69
2023-03-22T12:06:31.881Z,18.67
2023-03-22T12:09:12.851Z,18.70
2023-03-22T12:11:43.908Z,18.62
2023-03-22T12:14:26.143Z,18.72
2023-03-22T12:16:59.766Z,18.55
2023-03-22T12:19:38.667Z,18.49
2023-03-22T12:22:14.973Z,18.57
2023-03-22T12:24:42.998Z,18.61
2023-03-22T12:27:31.333Z,18.70
2023-03-22T12:30:03.239Z,18.73
2023-03-22T12:32:38.855Z,18.79
2023-03-22T12:35:17.691Z,18.81
2023-03-22T12:37:52.756Z,18.95
2023-03-22T12:40:32.403Z,19.08
2023-03-22T12:43:08.433Z,19.06
2023-03-22T12:45:41.044Z,19.10
2023-03-22T12:48:22.250Z,18.89
2023-03-22T12:51:02.368Z,18.83
2023-03-22T12:53:45.064Z,18.79
2023-03-22T12:56:16.115Z,18.54
2023-03-22T12:58:48.720Z,18.50
2023-03-22T13:01:44.351Z,18.60
2023-03-22T13:04:33.149Z,19.29
2023-03-22T13:07:30.702Z,20.09
2023-03-22T13:10:00.374Z,21.13
2023-03-22T13:12:33.018Z,21.22
2023-03-22T13:15:02.788Z,21.20
2023-03-22T13:17:29.768Z,21.09
2023-03-22T13:20:25.872Z,20.76
2023-03-22T13:22:52.887Z,20.52
2023-03-22T13:25:19.919Z,20.29
2023-03-22T13:27:59.623Z,20.01
2023-03-22T13:30:34.955Z,20.06
2023-03-22T13:33:10.677Z,20.88
2023-03-22T13:35:51.320Z,21.71
2023-03-22T13:38:24.609Z,22.45
2023-03-22T13:41:03.562Z,23.07
2023-03-22T13:43:50.477Z,23.91
2023-03-22T13:46:20.800Z,24.73
2023-03-22T13:48:48.399Z,25.11
2023-03-22T13:51:32.164Z,24.49
2023-03-22T13:54:00.605Z,24.20
2023-03-22T13:56:54.336Z,23.69
2023-03-22T13:59:27.571Z,23.34
2023-03-22T14:02:18.800Z,22.79
2023-03-22T14:05:04.368Z,22.39
2023-03-22T14:07:44.590Z,22.10
2023-03-22T14:10:14.196Z,21.92
2023-03-22T14:13:06.437Z,21.49
2023-03-22T14:15:40.568Z,21.10
2023-03-22T14:18:32.788Z,20.78
2023-03-22T14:21:23.882Z,20.77
2023-03-22T14:54:15.995Z,19.66
2023-03-22T14:56:44.672Z,19.76
2023-03-22T14:59:18.062Z,19.74
2023-03-22T15:02:02.233Z,19.56
2023-03-22T15:04:29.570Z,19.67
2023-03-22T15:06:59.646Z,19.12
2023-03-22T15:09:27.543Z,19.42
2023-03-22T15:11:59.560Z,19.65
2023-03-22T15:14:27.636Z,19.90
2023-03-22T15:16:55.098Z,20.33
2023-03-22T15:19:23.495Z,20.41
2023-03-22T15:22:13.685Z,20.80
2023-03-22T15:24:50.309Z,21.80
2023-03-22T15:27:18.847Z,22.02
2023-03-22T15:29:46.152Z,22.11
2023-03-22T15:32:19.803Z,22.23
2023-03-22T15:34:48.695Z,22.32
2023-03-22T15:37:35.997Z,22.94
2023-03-22T15:40:05.437Z,23.36
2023-03-22T15:42:37.675Z,23.77
2023-03-22T15:45:22.871Z,24.37
2023-03-22T15:47:53.967Z,25.01
2023-03-22T15:50:23.158Z,25.46
2023-03-22T15:52:58.255Z,25.42
2023-03-22T15:55:36.704Z,25.74
2023-03-22T15:58:08.804Z,25.94
2023-03-22T16:00:38.873Z,25.60
2023-03-22T16:03:08.659Z,25.33
2023-03-22T16:05:38.784Z,24.69
2023-03-22T16:08:07.662Z,24.77
2023-03-22T16:10:37.494Z,25.05
2023-03-22T16:13:30.880Z,25.40
2023-03-22T16:16:01.459Z,25.74
2023-03-22T16:18:29.644Z,25.82
2023-03-22T16:20:57.323Z,25.86
2023-03-22T16:23:26.571Z,25.77
2023-03-22T16:25:54.764Z,25.44
2023-03-22T16:28:23.281Z,24.84
2023-03-22T16:30:51.584Z,23.76
2023-03-22T16:33:19.701Z,22.81
2023-03-22T16:35:48.481Z,22.20
2023-03-22T16:38:17.390Z,21.62
2023-03-22T16:40:52.514Z,21.01
2023-03-22T16:43:20.287Z,20.53
2023-03-22T16:45:49.038Z,19.60
2023-03-22T16:48:16.486Z,19.06
2023-03-22T16:50:45.834Z,18.34
2023-03-22T16:53:17.089Z,17.92
2023-03-22T16:55:46.876Z,17.53
2023-03-22T16:58:14.805Z,17.48
2023-03-22T17:00:42.606Z,17.28
2023-03-22T17:03:13.223Z,17.11
2023-03-22T17:05:40.334Z,17.05
2023-03-22T17:08:17.661Z,16.92
2023-03-22T17:10:46.156Z,16.22
2023-03-22T17:13:17.608Z,16.20
2023-03-22T17:15:47.987Z,16.09
2023-03-22T17:18:16.328Z,15.89
2023-03-22T17:20:45.044Z,15.74
2023-03-22T17:23:13.592Z,15.62
2023-03-22T17:25:43.863Z,15.49
2023-03-22T17:28:13.024Z,15.47
2023-03-22T17:30:40.714Z,15.37
2023-03-22T17:33:09.799Z,15.34
2023-03-22T17:35:37.330Z,15.19
2023-03-22T17:38:05.003Z,15.02
2023-03-22T17:40:38.342Z,14.92
2023-03-22T17:43:15.741Z,14.84
2023-03-22T17:46:24.752Z,14.78
2023-03-22T17:48:29.979Z,14.65
2023-03-22T17:50:57.159Z,14.48
2023-03-22T17:54:04.908Z,14.35
2023-03-22T17:58:41.979Z,14.05
2023-03-22T18:01:13.420Z,13.96
2023-03-22T18:03:40.667Z,13.87
2023-03-22T18:06:08.037Z,13.74
2023-03-22T18:08:35.294Z,13.70
2023-03-22T18:11:02.492Z,13.67
2023-03-22T18:13:29.699Z,13.60
2023-03-22T18:15:57.104Z,13.44
2023-03-22T18:18:24.278Z,13.38
2023-03-22T18:20:57.409Z,13.27
2023-03-22T18:23:25.515Z,13.49
2023-03-22T18:25:58.904Z,13.08
2023-03-22T18:28:30.568Z,13.07
2023-03-22T18:30:58.326Z,13.06
2023-03-22T18:33:26.417Z,12.86
2023-03-22T18:35:55.856Z,12.77
2023-03-22T18:39:02.098Z,12.75
2023-03-22T18:43:47.548Z,12.68
2023-03-22T18:46:19.331Z,12.72
2023-03-22T18:48:46.790Z,12.75
2023-03-22T18:51:14.042Z,12.71
2023-03-22T18:53:41.221Z,12.49
2023-03-22T18:56:09.853Z,12.42
2023-03-22T18:58:37.134Z,12.46
2023-03-22T19:01:05.792Z,12.52
2023-03-22T19:03:35.812Z,12.49
2023-03-22T19:06:21.872Z,12.44
2023-03-22T19:08:50.810Z,12.40
2023-03-22T19:11:18.243Z,12.24
2023-03-22T19:14:23.920Z,12.25
2023-03-22T19:16:32.925Z,12.26
2023-03-22T19:19:00.064Z,12.19
2023-03-22T19:21:32.308Z,12.26
2023-03-22T19:23:59.888Z,12.16
2023-03-22T19:26:27.961Z,12.17
2023-03-22T19:28:59.217Z,12.11
2023-03-22T19:31:28.159Z,12.13
2023-03-22T19:33:56.571Z,11.94
2023-03-22T19:36:23.955Z,11.94
2023-03-22T19:38:51.121Z,11.90
2023-03-22T19:41:46.410Z,11.81
2023-03-22T19:44:06.161Z,11.66
2023-03-22T19:46:33.535Z,11.51
2023-03-22T19:49:02.447Z,11.43
2023-03-22T19:51:30.350Z,11.27
2023-03-22T19:54:25.785Z,11.36
2023-03-22T19:56:47.866Z,11.42
2023-03-22T19:59:16.972Z,11.46
2023-03-22T20:01:45.142Z,11.52
2023-03-22T20:04:12.617Z,11.52
2023-03-22T20:06:40.010Z,11.34
2023-03-22T20:09:07.464Z,11.40
2023-03-22T20:14:07.083Z,11.12
2023-03-22T20:16:37.377Z,11.21
2023-03-22T20:19:06.560Z,11.29
2023-03-22T20:21:34.579Z,11.21
2023-03-22T20:24:02.884Z,11.14
2023-03-22T20:26:31.055Z,11.22
2023-03-22T20:28:58.662Z,11.23
2023-03-22T20:31:25.936Z,11.08
2023-03-22T20:33:53.510Z,10.84
2023-03-22T20:36:21.682Z,10.74
2023-03-22T20:38:50.194Z,10.83
2023-03-22T20:41:17.930Z,10.85
2023-03-22T20:43:47.592Z,10.80
2023-03-22T20:46:15.784Z,10.68
2023-03-22T20:48:44.460Z,10.35
2023-03-22T20:51:12.465Z,10.24
2023-03-22T20:53:40.500Z,10.24
2023-03-22T20:56:09.786Z,10.17
2023-03-22T20:58:38.309Z,9.92
2023-03-22T21:01:10.142Z,9.80
2023-03-22T21:03:39.052Z,9.91
2023-03-22T21:06:10.768Z,9.84
2023-03-22T21:08:41.566Z,9.69
2023-03-22T21:11:11.977Z,9.72
2023-03-22T21:13:40.637Z,9.84
2023-03-22T21:16:13.200Z,9.86
2023-03-22T21:18:40.957Z,9.93
2023-03-22T21:21:09.649Z,9.97
2023-03-22T21:23:37.434Z,9.93
2023-03-22T21:26:05.810Z,9.94
2023-03-22T21:28:34.056Z,9.89
2023-03-22T21:31:15.045Z,9.88
2023-03-22T21:33:42.651Z,9.94
2023-03-22T21:36:13.920Z,9.99
2023-03-22T21:38:43.162Z,9.88
2023-03-22T21:41:10.606Z,9.26
2023-03-22T21:43:38.563Z,9.05
2023-03-22T21:46:10.836Z,9.00
2023-03-22T21:48:44.562Z,9.13
2023-03-22T21:51:13.172Z,8.93
2023-03-22T21:53:40.964Z,9.03
2023-03-22T21:56:09.481Z,8.85
2023-03-22T21:58:39.098Z,8.93
2023-03-22T22:01:06.799Z,8.88
2023-03-22T22:03:33.918Z,8.88
2023-03-22T22:06:01.264Z,8.86
2023-03-22T22:08:28.589Z,8.88
2023-03-22T22:11:00.812Z,8.83
2023-03-22T22:13:28.926Z,8.81
2023-03-22T22:16:02.656Z,8.90
2023-03-22T22:18:31.699Z,8.87
2023-03-22T22:21:01.667Z,8.85
2023-03-22T22:23:31.038Z,8.93
2023-03-22T22:25:59.776Z,9.12
2023-03-22T22:28:28.439Z,9.24
2023-03-22T22:30:55.952Z,9.17
2023-03-22T22:33:25.828Z,9.12
2023-03-22T22:35:53.359Z,9.25
2023-03-22T22:38:20.513Z,8.94
2023-03-22T22:40:48.482Z,9.03
2023-03-22T22:43:15.874Z,8.82
2023-03-22T22:45:43.317Z,8.83
2023-03-22T22:48:12.077Z,8.64
2023-03-22T22:50:39.230Z,8.55
2023-03-22T22:53:06.802Z,8.33
2023-03-22T22:55:34.227Z,8.29
2023-03-22T22:58:01.990Z,8.25
2023-03-22T23:00:31.711Z,8.16
2023-03-22T23:03:00.914Z,8.24
2023-03-22T23:05:29.238Z,8.19
2023-03-22T23:07:56.767Z,8.30
2023-03-22T23:10:24.055Z,8.34
2023-03-22T23:12:51.645Z,8.25
2023-03-22T23:15:27.130Z,8.26
2023-03-22T23:18:00.188Z,8.22
2023-03-22T23:20:30.392Z,8.23
2023-03-22T23:22:57.448Z,8.15
2023-03-22T23:25:25.711Z,8.22
2023-03-22T23:27:57.538Z,8.25
2023-03-22T23:30:24.643Z,8.34
2023-03-22T23:32:58.321Z,8.57
2023-03-22T23:35:29.790Z,8.27
2023-03-22T23:38:00.747Z,8.01
2023-03-22T23:40:29.503Z,8.14
2023-03-22T23:42:56.680Z,7.99
2023-03-22T23:45:23.821Z,8.00
2023-03-22T23:47:51.162Z,7.97
2023-03-22T23:50:18.482Z,7.96
2023-03-22T23:52:46.226Z,7.99
2023-03-22T23:55:13.943Z,7.95
2023-03-22T23:57:41.422Z,7.90
